Time;durP1;ratioP1;P1;durP2;ratioP2;P2;SDS_P1;SDS_P2;PMS_P1;PMS_P2;Temp;Humidity;BMP_temperature;BMP_pressure;BME280_temperature;BME280_humidity;BME280_pressure;Samples;Min_cycle;Max_cycle;Signal;HPM_P1;HPM_P2
2023/03/19 00:02:16;;;;;;;1.05;0.88;;;9.40;90.30;;;;;;5020336;28;20025;-78
2023/03/19 00:04:41;;;;;;;1.52;1.15;;;9.30;90.40;;;;;;5013576;28;20086;-80
2023/03/19 00:07:07;;;;;;;0.93;0.80;;;9.30;90.50;;;;;;5025906;28;20172;-79
2023/03/19 00:09:33;;;;;;;1.38;0.98;;;9.20;90.60;;;;;;5020989;28;20049;-78
2023/03/19 00:11:58;;;;;;;1.25;0.93;;;9.20;90.70;;;;;;5023741;28;20010;-80
2023/03/19 00:14:24;;;;;;;1.13;0.82;;;9.20;90.80;;;;;;5025187;28;20030;-80
2023/03/19 00:16:50;;;;;;;1.00;0.80;;;9.10;91.00;;;;;;5021472;28;20505;-80
2023/03/19 00:19:16;;;;;;;1.50;1.20;;;9.20;91.10;;;;;;5022722;28;20057;-79
2023/03/19 00:21:42;;;;;;;1.20;0.93;;;9.20;91.20;;;;;;5022188;28;20467;-79
2023/03/19 00:24:08;;;;;;;1.75;1.05;;;9.10;91.20;;;;;;5003109;28;20030;-79
2023/03/19 00:26:35;;;;;;;1.40;1.10;;;9.20;91.20;;;;;;5018069;28;20309;-79
2023/03/19 00:29:01;;;;;;;1.73;1.20;;;9.10;91.30;;;;;;5020118;28;20501;-80
2023/03/19 00:31:27;;;;;;;1.92;1.10;;;9.10;91.30;;;;;;5026180;28;20060;-79
2023/03/19 00:33:56;;;;;;;0.90;0.90;;;9.10;91.40;;;;;;5011331;28;20030;-79
2023/03/19 00:36:22;;;;;;;1.35;0.93;;;9.10;91.60;;;;;;5020606;28;20463;-78
2023/03/19 00:38:48;;;;;;;1.20;1.00;;;9.10;91.70;;;;;;5018888;28;20479;-78
2023/03/19 00:41:16;;;;;;;1.08;0.98;;;9.00;91.70;;;;;;5000853;28;20068;-78
2023/03/19 00:43:41;;;;;;;1.90;1.20;;;9.00;91.80;;;;;;5000775;28;20506;-78
2023/03/19 00:46:08;;;;;;;0.75;0.75;;;8.90;91.90;;;;;;5001976;28;20407;-79
2023/03/19 00:48:34;;;;;;;1.23;0.93;;;8.90;92.20;;;;;;4984652;28;20057;-79
2023/03/19 00:51:08;;;;;;;2.05;1.23;;;8.90;92.30;;;;;;5016207;28;20083;-77
2023/03/19 00:53:38;;;;;;;1.00;0.95;;;8.80;92.40;;;;;;5001128;28;20152;-80
2023/03/19 00:56:05;;;;;;;1.58;1.08;;;8.80;92.50;;;;;;5000032;28;20045;-79
2023/03/19 00:58:30;;;;;;;0.77;0.77;;;8.80;92.50;;;;;;4983577;28;20030;-80
2023/03/19 01:00:56;;;;;;;1.40;0.90;;;8.70;92.60;;;;;;5011209;28;20030;-79
2023/03/19 01:03:22;;;;;;;0.75;0.75;;;8.60;92.70;;;;;;5011058;28;20014;-79
2023/03/19 01:05:49;;;;;;;1.33;1.08;;;8.60;92.80;;;;;;5017683;28;20501;-80
2023/03/19 01:08:21;;;;;;;1.00;1.00;;;8.50;93.00;;;;;;5001321;28;20522;-78
2023/03/19 01:10:46;;;;;;;1.27;0.98;;;8.50;93.10;;;;;;5018767;28;20038;-78
2023/03/19 01:13:13;;;;;;;2.33;1.50;;;8.40;93.20;;;;;;5017507;28;20030;-79
2023/03/19 01:15:41;;;;;;;1.15;0.85;;;8.40;93.40;;;;;;5018633;28;20040;-78
2023/03/19 01:18:07;;;;;;;1.52;1.10;;;8.40;93.70;;;;;;5000224;28;20442;-78
2023/03/19 01:20:41;;;;;;;1.65;1.40;;;8.40;93.80;;;;;;5014658;28;20026;-80
2023/03/19 01:23:07;;;;;;;1.40;1.02;;;8.40;94.00;;;;;;5001539;28;20018;-80
2023/03/19 01:25:33;;;;;;;1.20;1.08;;;8.40;94.10;;;;;;5000797;28;20022;-78
2023/03/19 01:27:59;;;;;;;1.92;1.10;;;8.40;94.10;;;;;;4984614;28;20089;-78
2023/03/19 01:30:25;;;;;;;2.15;1.55;;;8.40;94.20;;;;;;5011883;28;20056;-78
2023/03/19 01:32:51;;;;;;;1.95;1.42;;;8.30;94.30;;;;;;5012912;28;20022;-79
2023/03/19 01:35:17;;;;;;;1.90;1.40;;;8.30;94.50;;;;;;5007845;28;20037;-77
2023/03/19 01:37:46;;;;;;;2.05;1.30;;;8.30;94.60;;;;;;5033557;28;20120;-78
2023/03/19 01:40:13;;;;;;;1.35;1.25;;;8.30;94.70;;;;;;5009558;28;20022;-79
2023/03/19 01:42:53;;;;;;;1.90;1.25;;;8.30;94.70;;;;;;5026050;28;20116;-79
2023/03/19 01:45:37;;;;;;;2.65;1.58;;;8.20;94.80;;;;;;5026410;28;20049;-78
2023/03/19 01:48:03;;;;;;;1.63;1.40;;;8.20;94.90;;;;;;5014370;28;20037;-77
2023/03/19 01:50:42;;;;;;;2.03;1.33;;;8.20;95.00;;;;;;5005566;28;20025;-78
2023/03/19 01:53:10;;;;;;;1.50;1.20;;;8.20;95.10;;;;;;5018627;28;20038;-78
2023/03/19 01:55:38;;;;;;;1.73;1.50;;;8.20;95.20;;;;;;5000224;28;20029;-76
2023/03/19 01:58:08;;;;;;;1.35;1.20;;;8.20;95.30;;;;;;5021492;28;20030;-79
2023/03/19 02:00:34;;;;;;;2.65;1.70;;;8.10;95.40;;;;;;5004465;28;20049;-79
2023/03/19 02:03:01;;;;;;;3.00;2.33;;;8.20;95.40;;;;;;5012837;28;20030;-80
2023/03/19 02:05:31;;;;;;;3.53;1.80;;;8.20;95.40;;;;;;5020676;28;20121;-79
2023/03/19 02:08:00;;;;;;;2.00;1.70;;;8.10;95.50;;;;;;5020219;28;20029;-80
2023/03/19 02:10:28;;;;;;;2.53;1.67;;;8.20;95.50;;;;;;5000488;28;20040;-79
2023/03/19 02:12:54;;;;;;;2.22;1.25;;;8.20;95.60;;;;;;5016948;28;20105;-79
2023/03/19 02:15:20;;;;;;;1.92;1.60;;;8.10;95.50;;;;;;4998291;28;20069;-80
2023/03/19 02:17:46;;;;;;;2.38;1.50;;;8.10;95.60;;;;;;4999609;28;20034;-78
2023/03/19 02:20:36;;;;;;;1.98;1.42;;;8.10;95.60;;;;;;4999993;28;20023;-79
2023/03/19 02:23:10;;;;;;;1.80;1.60;;;8.00;95.60;;;;;;5006867;28;20018;-80
2023/03/19 02:25:47;;;;;;;1.30;1.20;;;8.00;95.80;;;;;;5019919;28;20025;-79
2023/03/19 02:28:18;;;;;;;2.45;1.65;;;8.00;95.90;;;;;;5021696;28;20463;-78
2023/03/19 02:30:44;;;;;;;1.70;1.20;;;7.90;96.00;;;;;;5021208;28;20032;-77
2023/03/19 02:33:19;;;;;;;1.90;1.27;;;7.90;96.10;;;;;;5018922;28;20046;-77
2023/03/19 02:35:48;;;;;;;2.10;1.73;;;7.90;96.30;;;;;;4989723;28;20038;-78
2023/03/19 02:38:14;;;;;;;2.03;1.33;;;7.90;96.50;;;;;;4998488;28;20026;-80
2023/03/19 02:41:03;;;;;;;1.45;1.08;;;7.90;96.40;;;;;;5002497;28;20098;-78
2023/03/19 02:43:34;;;;;;;2.33;1.20;;;7.90;96.40;;;;;;5004502;28;20116;-80
2023/03/19 02:46:01;;;;;;;0.98;0.88;;;7.90;96.50;;;;;;5018434;28;20085;-79
2023/03/19 02:48:27;;;;;;;0.75;0.75;;;7.90;96.60;;;;;;5017448;28;20076;-80
2023/03/19 02:50:52;;;;;;;1.85;1.30;;;7.90;96.70;;;;;;5017769;28;20026;-78
2023/03/19 02:53:18;;;;;;;1.45;0.95;;;7.90;96.70;;;;;;5016516;28;20058;-80
2023/03/19 02:55:44;;;;;;;2.47;1.50;;;8.00;96.70;;;;;;4979672;28;20121;-80
2023/03/19 02:58:11;;;;;;;1.58;1.25;;;8.00;96.70;;;;;;4997713;28;20062;-80
2023/03/19 03:00:37;;;;;;;1.90;1.30;;;8.00;96.70;;;;;;4992834;28;20032;-78
2023/03/19 03:03:05;;;;;;;2.20;1.15;;;8.00;96.70;;;;;;5009160;28;20347;-80
2023/03/19 03:05:31;;;;;;;0.90;0.90;;;8.00;96.70;;;;;;5011295;28;20038;-79
2023/03/19 03:07:57;;;;;;;1.35;0.98;;;7.90;96.80;;;;;;5001459;28;20041;-76
2023/03/19 03:10:23;;;;;;;1.17;1.08;;;7.90;96.80;;;;;;5014009;28;20121;-77
2023/03/19 03:12:49;;;;;;;2.10;1.38;;;7.90;96.80;;;;;;4996400;28;20069;-77
2023/03/19 03:15:15;;;;;;;2.63;1.65;;;7.90;96.90;;;;;;5024432;28;20086;-77
2023/03/19 03:17:41;;;;;;;3.10;2.33;;;7.90;96.80;;;;;;5032186;28;20041;-79
2023/03/19 03:20:08;;;;;;;2.67;1.95;;;7.90;96.80;;;;;;5025232;28;20025;-79
2023/03/19 03:22:34;;;;;;;3.90;1.95;;;7.90;96.80;;;;;;5020333;28;20050;-80
2023/03/19 03:25:00;;;;;;;3.92;2.38;;;7.80;96.80;;;;;;5015075;28;20026;-80
2023/03/19 03:27:26;;;;;;;2.78;1.90;;;7.80;96.90;;;;;;5011692;28;20129;-79
2023/03/19 03:29:52;;;;;;;3.00;1.63;;;7.80;96.90;;;;;;5025366;28;20018;-78
2023/03/19 03:32:17;;;;;;;1.60;1.48;;;7.80;97.00;;;;;;5032014;28;20022;-78
2023/03/19 03:34:45;;;;;;;2.47;1.40;;;7.80;97.10;;;;;;5029100;28;20034;-77
2023/03/19 03:37:10;;;;;;;2.55;1.50;;;7.80;97.10;;;;;;5020315;28;20173;-80
2023/03/19 03:39:36;;;;;;;3.75;1.98;;;7.70;97.00;;;;;;5018731;28;20088;-80
2023/03/19 03:42:02;;;;;;;3.30;2.00;;;7.70;97.00;;;;;;5003816;28;20018;-78
2023/03/19 03:44:28;;;;;;;2.95;2.10;;;7.70;97.10;;;;;;5029069;28;20018;-76
2023/03/19 03:46:54;;;;;;;3.13;1.83;;;7.60;97.20;;;;;;5026059;28;20082;-78
2023/03/19 03:49:20;;;;;;;2.60;1.40;;;7.60;97.30;;;;;;5019346;28;20126;-81
2023/03/19 03:51:45;;;;;;;2.42;1.55;;;7.60;97.40;;;;;;5016348;28;20036;-79
2023/03/19 03:54:11;;;;;;;1.27;1.00;;;7.60;97.50;;;;;;5016037;28;20092;-79
2023/03/19 03:56:37;;;;;;;2.25;1.73;;;7.60;97.50;;;;;;5014909;28;20042;-80
2023/03/19 03:59:02;;;;;;;2.20;1.45;;;7.60;97.50;;;;;;5015385;28;20040;-80
2023/03/19 04:01:28;;;;;;;1.73;1.60;;;7.70;97.50;;;;;;5003840;28;20042;-79
2023/03/19 04:03:54;;;;;;;1.95;1.52;;;7.70;97.60;;;;;;4997893;28;20060;-79
2023/03/19 04:06:22;;;;;;;1.20;1.08;;;7.70;97.50;;;;;;5016250;28;20060;-80
2023/03/19 04:08:48;;;;;;;1.10;1.00;;;7.80;97.50;;;;;;5016951;28;20026;-81
2023/03/19 04:11:14;;;;;;;1.00;1.00;;;7.80;97.40;;;;;;5023608;28;20061;-80
2023/03/19 04:13:40;;;;;;;1.25;1.15;;;7.80;97.40;;;;;;5010056;28;20050;-76
2023/03/19 04:16:06;;;;;;;2.15;1.55;;;7.80;97.30;;;;;;5005174;28;20089;-79
2023/03/19 04:18:33;;;;;;;1.20;1.10;;;7.80;97.30;;;;;;5000493;28;20371;-79
2023/03/19 04:20:58;;;;;;;2.65;1.88;;;7.80;97.30;;;;;;5003943;28;20033;-79
2023/03/19 04:23:24;;;;;;;2.08;1.50;;;7.80;97.30;;;;;;5009202;28;20049;-76
2023/03/19 04:25:50;;;;;;;2.28;1.20;;;7.80;97.30;;;;;;5023128;28;20060;-78
2023/03/19 04:28:16;;;;;;;1.45;1.35;;;7.70;97.30;;;;;;4994209;28;20033;-80
2023/03/19 04:30:44;;;;;;;1.23;1.10;;;7.70;97.40;;;;;;5017026;28;20064;-80
2023/03/19 04:33:10;;;;;;;2.20;1.17;;;7.70;97.50;;;;;;5005577;28;20038;-79
2023/03/19 04:35:36;;;;;;;2.03;1.38;;;7.70;97.60;;;;;;5027767;28;20041;-78
2023/03/19 04:38:02;;;;;;;1.40;1.30;;;7.70;97.70;;;;;;5021326;28;20101;-80
2023/03/19 04:40:28;;;;;;;1.40;1.20;;;7.60;97.70;;;;;;5020685;28;20086;-79
2023/03/19 04:42:55;;;;;;;6.18;1.92;;;7.70;97.80;;;;;;5019456;28;20250;-79
2023/03/19 04:45:20;;;;;;;2.20;1.80;;;7.70;97.70;;;;;;5000841;28;20101;-81
2023/03/19 04:47:46;;;;;;;2.67;1.60;;;7.70;97.70;;;;;;5000417;28;20049;-80
2023/03/19 04:50:12;;;;;;;2.88;1.55;;;7.70;97.80;;;;;;4999861;28;20045;-81
2023/03/19 04:52:38;;;;;;;2.45;1.33;;;7.80;97.80;;;;;;4981855;28;20026;-79
2023/03/19 04:55:06;;;;;;;1.55;1.38;;;7.80;97.80;;;;;;4985435;28;20060;-79
2023/03/19 04:57:32;;;;;;;2.20;1.23;;;7.80;97.70;;;;;;5015034;28;20100;-80
2023/03/19 04:59:58;;;;;;;1.17;0.90;;;7.80;97.70;;;;;;5002541;28;20026;-78
2023/03/19 05:02:24;;;;;;;1.45;1.25;;;7.90;97.70;;;;;;4999835;28;20495;-78
2023/03/19 05:04:49;;;;;;;4.22;1.80;;;7.90;97.60;;;;;;5000218;28;20026;-79
2023/03/19 05:07:15;;;;;;;2.60;2.00;;;7.90;97.50;;;;;;5019368;28;20033;-79
2023/03/19 05:09:42;;;;;;;1.95;1.70;;;8.00;97.50;;;;;;5016802;28;20033;-82
2023/03/19 05:12:09;;;;;;;1.67;1.33;;;8.00;97.40;;;;;;5019784;28;20041;-81
2023/03/19 05:14:35;;;;;;;1.42;1.33;;;8.10;97.40;;;;;;5019202;28;20081;-77
2023/03/19 05:17:01;;;;;;;1.95;1.30;;;8.10;97.40;;;;;;5013928;28;20033;-75
2023/03/19 05:19:27;;;;;;;1.52;1.25;;;8.20;97.30;;;;;;4996078;28;20037;-75
2023/03/19 05:21:53;;;;;;;1.90;1.25;;;8.30;97.20;;;;;;5011326;28;20447;-77
2023/03/19 05:24:19;;;;;;;1.05;1.00;;;8.30;97.00;;;;;;5013690;28;20080;-76
2023/03/19 05:26:45;;;;;;;1.15;0.98;;;8.40;96.90;;;;;;5021689;28;20030;-75
2023/03/19 05:29:10;;;;;;;1.90;1.13;;;8.50;96.80;;;;;;5015863;28;20085;-74
2023/03/19 05:31:37;;;;;;;1.83;1.13;;;8.60;96.60;;;;;;5019648;28;20033;-75
2023/03/19 05:34:03;;;;;;;1.23;0.93;;;8.60;96.40;;;;;;5014041;28;20034;-76
2023/03/19 05:36:29;;;;;;;1.77;1.25;;;8.70;96.20;;;;;;5015189;28;20037;-76
2023/03/19 05:38:55;;;;;;;1.80;1.30;;;8.70;95.90;;;;;;5008950;28;20398;-75
2023/03/19 05:41:20;;;;;;;1.85;1.20;;;8.80;95.80;;;;;;4999425;28;20080;-75
2023/03/19 05:43:46;;;;;;;3.05;1.23;;;8.80;95.60;;;;;;4994847;28;20069;-75
2023/03/19 05:46:12;;;;;;;1.80;1.15;;;8.80;95.40;;;;;;4995623;28;20105;-75
2023/03/19 05:48:38;;;;;;;2.47;1.60;;;8.90;95.30;;;;;;4981095;28;20034;-76
2023/03/19 05:51:04;;;;;;;2.75;1.52;;;9.00;95.20;;;;;;5014162;28;20037;-77
2023/03/19 05:53:29;;;;;;;3.67;2.10;;;9.00;95.00;;;;;;5014387;28;20030;-75
2023/03/19 05:55:55;;;;;;;3.90;2.13;;;9.00;94.80;;;;;;5013261;28;20460;-75
2023/03/19 05:58:21;;;;;;;2.40;1.65;;;9.10;94.60;;;;;;5004436;28;20498;-75
2023/03/19 06:00:47;;;;;;;3.50;2.63;;;9.10;94.50;;;;;;5013169;28;20050;-76
2023/03/19 06:03:13;;;;;;;4.18;2.75;;;9.20;94.40;;;;;;5013315;28;20478;-75
2023/03/19 06:05:39;;;;;;;5.72;3.40;;;9.20;94.30;;;;;;5012339;28;20037;-75
2023/03/19 06:08:05;;;;;;;3.88;2.40;;;9.20;94.10;;;;;;5013098;28;20116;-75
2023/03/19 06:10:34;;;;;;;2.60;2.17;;;9.20;94.10;;;;;;5012620;28;20104;-75
2023/03/19 06:13:00;;;;;;;5.13;3.47;;;9.30;94.00;;;;;;5012869;28;20045;-74
2023/03/19 06:15:26;;;;;;;6.60;3.53;;;9.30;93.90;;;;;;4995147;28;20030;-74
2023/03/19 06:17:51;;;;;;;6.07;4.18;;;9.30;93.90;;;;;;5012897;28;20171;-75
2023/03/19 06:20:17;;;;;;;5.82;3.85;;;9.40;93.80;;;;;;4994544;28;20026;-75
2023/03/19 06:22:43;;;;;;;6.38;4.38;;;9.40;93.80;;;;;;5012435;28;20033;-76
2023/03/19 06:25:09;;;;;;;7.32;4.55;;;9.40;93.80;;;;;;4993510;28;20164;-75
2023/03/19 06:27:34;;;;;;;6.72;4.03;;;9.50;93.90;;;;;;5000275;28;20045;-75
2023/03/19 06:30:00;;;;;;;8.25;4.20;;;9.50;93.90;;;;;;4980330;28;20034;-74
2023/03/19 06:32:26;;;;;;;9.13;5.72;;;9.50;93.80;;;;;;5007738;28;20033;-74
2023/03/19 06:34:52;;;;;;;6.85;4.97;;;9.60;93.70;;;;;;5011826;28;20209;-75
2023/03/19 06:37:17;;;;;;;9.23;4.28;;;9.60;93.70;;;;;;5008749;28;20044;-75
2023/03/19 06:39:43;;;;;;;12.52;6.05;;;9.70;93.70;;;;;;4993449;28;20108;-75
2023/03/19 06:42:09;;;;;;;8.15;5.43;;;9.70;93.60;;;;;;4997695;28;20109;-75
2023/03/19 06:44:34;;;;;;;7.40;4.03;;;9.70;93.50;;;;;;5012251;28;20056;-76
2023/03/19 06:47:00;;;;;;;6.93;4.57;;;9.80;93.50;;;;;;5011768;28;20037;-75
2023/03/19 06:49:26;;;;;;;7.72;4.65;;;9.80;93.50;;;;;;5011724;28;20032;-76
2023/03/19 06:51:51;;;;;;;9.90;5.75;;;9.90;93.40;;;;;;5012470;28;20041;-74
2023/03/19 06:54:17;;;;;;;7.15;4.90;;;9.90;93.30;;;;;;5012503;28;20052;-76
2023/03/19 06:56:43;;;;;;;9.43;4.80;;;9.90;93.30;;;;;;5008349;28;20472;-76
2023/03/19 06:59:11;;;;;;;6.95;5.15;;;9.90;93.30;;;;;;5001456;28;20030;-75
2023/03/19 07:01:41;;;;;;;8.88;5.03;;;9.90;93.20;;;;;;4993826;28;20014;-74
2023/03/19 07:04:07;;;;;;;8.65;4.40;;;9.90;93.20;;;;;;4994576;28;20452;-74
2023/03/19 07:06:33;;;;;;;9.75;5.45;;;10.00;93.30;;;;;;4993162;28;20050;-74
2023/03/19 07:08:59;;;;;;;7.88;4.97;;;10.00;93.20;;;;;;4993390;28;20475;-75
2023/03/19 07:11:25;;;;;;;5.53;3.95;;;10.00;93.10;;;;;;4998821;28;20183;-75
2023/03/19 07:13:50;;;;;;;7.63;4.03;;;10.00;93.20;;;;;;5002842;28;20404;-76
2023/03/19 07:16:16;;;;;;;8.07;4.57;;;10.10;93.20;;;;;;5007856;28;20061;-75
2023/03/19 07:18:42;;;;;;;7.40;3.70;;;10.10;93.20;;;;;;5012533;28;20488;-75
2023/03/19 07:21:07;;;;;;;3.25;2.65;;;10.20;93.30;;;;;;5005883;28;20503;-74
2023/03/19 07:23:33;;;;;;;4.50;2.50;;;10.30;93.30;;;;;;4993181;28;20102;-75
2023/03/19 07:25:59;;;;;;;4.07;3.45;;;10.40;93.20;;;;;;5012110;28;20093;-76
2023/03/19 07:28:25;;;;;;;6.32;3.30;;;10.40;93.00;;;;;;5042942;22;20034;-75
2023/03/19 07:30:52;;;;;;;5.03;3.22;;;10.60;92.90;;;;;;5014100;28;20062;-74
2023/03/19 07:33:19;;;;;;;3.30;2.67;;;10.70;92.80;;;;;;5015670;28;20060;-74
2023/03/19 07:35:44;;;;;;;2.88;2.38;;;10.80;92.70;;;;;;5013668;28;20060;-73
2023/03/19 07:38:10;;;;;;;8.55;4.60;;;11.00;92.40;;;;;;5015037;28;20026;-74
2023/03/19 07:40:36;;;;;;;5.55;4.07;;;10.70;93.50;;;;;;5032113;28;20017;-73
2023/03/19 07:43:02;;;;;;;8.82;4.70;;;11.20;93.80;;;;;;5016677;28;20044;-73
2023/03/19 07:45:28;;;;;;;6.18;3.47;;;11.10;91.60;;;;;;5035686;28;20385;-75
2023/03/19 07:47:54;;;;;;;4.60;3.40;;;11.10;91.40;;;;;;5037163;28;20105;-74
2023/03/19 07:50:20;;;;;;;4.47;3.10;;;11.10;91.50;;;;;;5034603;28;20112;-74
2023/03/19 07:52:50;;;;;;;4.95;2.70;;;11.10;91.60;;;;;;5035765;28;20033;-76
2023/03/19 07:55:16;;;;;;;5.07;2.90;;;11.10;91.50;;;;;;5016108;28;20163;-75
2023/03/19 07:57:42;;;;;;;4.72;3.03;;;11.10;91.50;;;;;;5017207;28;20498;-73
2023/03/19 08:00:09;;;;;;;5.45;3.08;;;11.10;91.50;;;;;;5019382;28;20045;-79
2023/03/19 08:02:35;;;;;;;5.13;2.90;;;11.20;91.60;;;;;;5018018;28;20031;-74
2023/03/19 08:05:03;;;;;;;4.95;3.13;;;11.20;91.70;;;;;;5032998;28;20101;-74
2023/03/19 08:07:29;;;;;;;3.53;2.88;;;11.20;91.70;;;;;;5033499;28;20089;-74
2023/03/19 08:09:57;;;;;;;3.13;2.45;;;11.30;91.80;;;;;;5018504;28;20034;-74
2023/03/19 08:12:25;;;;;;;7.78;3.13;;;11.40;91.90;;;;;;5017153;28;20022;-74
2023/03/19 08:14:51;;;;;;;3.15;2.40;;;11.40;92.00;;;;;;5017114;28;20030;-74
2023/03/19 08:17:16;;;;;;;2.40;1.88;;;11.50;92.10;;;;;;5019725;28;20033;-74
2023/03/19 08:19:42;;;;;;;2.72;2.00;;;11.50;92.10;;;;;;5030454;28;20029;-73
2023/03/19 08:22:08;;;;;;;2.75;1.63;;;11.50;92.00;;;;;;5017387;28;20009;-73
2023/03/19 08:24:34;;;;;;;4.75;2.63;;;11.60;92.10;;;;;;5032514;28;20029;-74
2023/03/19 08:27:00;;;;;;;2.45;2.15;;;11.50;92.10;;;;;;5034606;28;20018;-74
2023/03/19 08:29:26;;;;;;;5.45;2.40;;;11.50;92.20;;;;;;5020869;28;20045;-73
2023/03/19 08:31:53;;;;;;;3.85;2.28;;;11.40;92.40;;;;;;5018003;28;20048;-74
2023/03/19 08:34:19;;;;;;;3.40;2.22;;;11.40;92.50;;;;;;5036587;28;20085;-74
2023/03/19 08:36:45;;;;;;;3.78;3.00;;;11.40;92.60;;;;;;5038196;28;20026;-74
2023/03/19 08:39:11;;;;;;;4.43;2.60;;;11.30;92.70;;;;;;5034597;28;20025;-74
2023/03/19 08:41:36;;;;;;;3.00;2.20;;;11.30;92.80;;;;;;5035759;28;20064;-74
2023/03/19 08:44:02;;;;;;;6.80;3.25;;;11.30;93.00;;;;;;5018726;28;20082;-74
2023/03/19 08:46:28;;;;;;;3.83;2.60;;;11.30;93.10;;;;;;5036988;28;20025;-73
2023/03/19 08:48:54;;;;;;;2.13;1.92;;;11.30;93.30;;;;;;5028783;28;20530;-74
2023/03/19 08:51:20;;;;;;;3.40;2.20;;;11.20;93.40;;;;;;5017076;28;20034;-74
2023/03/19 08:53:45;;;;;;;3.13;2.47;;;11.20;93.60;;;;;;5016789;28;20505;-73
2023/03/19 08:56:11;;;;;;;4.35;2.20;;;11.20;93.80;;;;;;5010231;28;20053;-73
2023/03/19 08:58:38;;;;;;;4.80;2.40;;;11.20;93.80;;;;;;5025800;28;20048;-71
2023/03/19 09:01:08;;;;;;;2.65;2.08;;;11.20;93.70;;;;;;5025618;28;20021;-72
2023/03/19 09:03:34;;;;;;;6.78;3.13;;;11.20;93.80;;;;;;5024333;28;20030;-73
2023/03/19 09:06:03;;;;;;;3.75;2.40;;;11.20;93.70;;;;;;5017291;28;20010;-73
2023/03/19 09:08:29;;;;;;;4.63;2.08;;;11.30;93.80;;;;;;4999112;28;20022;-73
2023/03/19 09:10:56;;;;;;;2.28;1.77;;;11.40;93.80;;;;;;5036906;28;20428;-73
2023/03/19 09:13:22;;;;;;;2.15;1.50;;;11.50;93.70;;;;;;5035619;28;20340;-73
2023/03/19 09:15:48;;;;;;;2.70;1.50;;;11.60;93.50;;;;;;5036205;28;20034;-73
2023/03/19 09:18:14;;;;;;;1.30;1.20;;;11.70;93.40;;;;;;5018732;28;20285;-73
2023/03/19 09:20:40;;;;;;;2.17;1.55;;;11.80;93.20;;;;;;5022453;28;20033;-73
2023/03/19 09:23:06;;;;;;;2.78;1.92;;;11.90;92.90;;;;;;5015569;28;20025;-72
2023/03/19 09:25:32;;;;;;;2.20;1.88;;;12.00;92.60;;;;;;5021418;28;20403;-73
2023/03/19 09:27:58;;;;;;;3.08;1.85;;;12.10;92.30;;;;;;5025248;28;20029;-73
2023/03/19 09:30:23;;;;;;;3.03;1.70;;;12.20;92.10;;;;;;5025998;28;20029;-73
2023/03/19 09:32:49;;;;;;;2.90;2.00;;;12.50;91.90;;;;;;5035336;28;20037;-75
2023/03/19 09:35:15;;;;;;;2.75;1.92;;;12.80;91.30;;;;;;5035693;28;20033;-73
2023/03/19 09:37:41;;;;;;;2.35;1.92;;;13.00;90.30;;;;;;5035229;28;20097;-74
2023/03/19 09:40:15;;;;;;;3.35;1.73;;;13.30;90.30;;;;;;5029837;28;20463;-73
2023/03/19 09:42:46;;;;;;;2.35;1.65;;;13.50;89.50;;;;;;5015907;28;20033;-73
2023/03/19 09:45:18;;;;;;;3.00;1.75;;;13.60;88.40;;;;;;5015670;28;20026;-71
2023/03/19 09:47:47;;;;;;;3.73;2.40;;;13.60;87.90;;;;;;5015430;28;20022;-73
2023/03/19 09:50:19;;;;;;;2.30;2.10;;;13.50;87.50;;;;;;5018782;28;20288;-73
2023/03/19 09:53:00;;;;;;;2.25;1.83;;;13.50;87.40;;;;;;5035665;28;20029;-72
2023/03/19 09:55:48;;;;;;;1.83;1.65;;;13.30;88.40;;;;;;5034977;28;20116;-73
2023/03/19 09:58:19;;;;;;;2.40;2.08;;;13.40;88.70;;;;;;5023997;28;20433;-75
2023/03/19 10:00:53;;;;;;;3.60;1.90;;;13.40;88.50;;;;;;5017793;28;20033;-77
2023/03/19 10:03:59;;;;;;;2.20;1.60;;;13.40;88.30;;;;;;5035456;28;20099;-75
2023/03/19 10:06:31;;;;;;;2.72;1.55;;;13.30;88.30;;;;;;5035522;28;20025;-78
2023/03/19 10:09:15;;;;;;;;;;;13.20;88.80;;;;;;5038233;28;20143;-76
2023/03/19 10:11:49;;;;;;;2.22;1.52;;;13.20;89.50;;;;;;5035048;28;19912;-75
2023/03/19 10:14:45;;;;;;;2.95;1.95;;;13.30;89.30;;;;;;5035607;28;20104;-77
2023/03/19 10:17:19;;;;;;;2.65;2.08;;;13.40;87.50;;;;;;5018788;28;20049;-78
2023/03/19 10:19:54;;;;;;;3.22;2.33;;;13.50;87.40;;;;;;5016556;28;20482;-75
2023/03/19 10:22:30;;;;;;;2.45;2.03;;;13.60;87.60;;;;;;5015291;28;20029;-75
2023/03/19 10:24:57;;;;;;;2.67;1.67;;;13.90;85.90;;;;;;5017438;28;20018;-75
2023/03/19 10:27:27;;;;;;;2.40;1.67;;;14.10;85.60;;;;;;5034618;28;20066;-73
2023/03/19 10:29:53;;;;;;;2.22;1.58;;;14.50;86.00;;;;;;5018107;28;20057;-74
2023/03/19 10:32:33;;;;;;;1.10;1.10;;;14.90;83.80;;;;;;5015423;28;20399;-74
2023/03/19 10:35:06;;;;;;;2.13;1.85;;;15.20;82.00;;;;;;5028375;28;20108;-74
2023/03/19 10:37:34;;;;;;;2.10;1.90;;;15.30;78.90;;;;;;5034984;28;20029;-74
2023/03/19 10:40:00;;;;;;;3.65;2.05;;;15.30;78.60;;;;;;5036637;28;20022;-74
2023/03/19 10:42:39;;;;;;;3.08;1.88;;;15.20;77.00;;;;;;5027346;28;20029;-75
2023/03/19 10:45:25;;;;;;;2.95;1.88;;;15.00;76.40;;;;;;5014931;28;20486;-74
2023/03/19 10:47:52;;;;;;;2.97;1.90;;;14.70;76.80;;;;;;4998316;28;20022;-75
2023/03/19 10:50:22;;;;;;;3.25;2.00;;;14.50;77.30;;;;;;5014617;28;20480;-75
2023/03/19 10:52:59;;;;;;;3.13;1.88;;;14.30;78.00;;;;;;5004298;28;20029;-75
2023/03/19 10:55:28;;;;;;;2.22;1.63;;;14.20;76.40;;;;;;5034370;28;20049;-74
2023/03/19 10:58:04;;;;;;;1.48;1.13;;;14.00;77.90;;;;;;5025782;28;20045;-74
2023/03/19 11:00:34;;;;;;;1.63;1.40;;;14.00;78.70;;;;;;5034310;28;20075;-74
2023/03/19 11:03:03;;;;;;;3.28;1.73;;;14.00;78.90;;;;;;5036492;28;20022;-74
2023/03/19 11:05:32;;;;;;;1.75;1.48;;;14.20;78.50;;;;;;5035356;28;20072;-75
2023/03/19 11:08:12;;;;;;;1.98;1.52;;;14.40;78.40;;;;;;5034746;28;20029;-74
2023/03/19 11:10:46;;;;;;;1.58;1.23;;;14.60;77.70;;;;;;5034528;28;20102;-74
2023/03/19 11:13:21;;;;;;;3.47;1.85;;;14.80;76.90;;;;;;5028754;28;20037;-74
2023/03/19 11:15:48;;;;;;;2.72;1.90;;;14.80;75.70;;;;;;5014770;28;20386;-74
2023/03/19 11:18:37;;;;;;;4.05;2.00;;;14.70;76.10;;;;;;5013996;28;20382;-74
2023/03/19 11:21:20;;;;;;;1.75;1.60;;;14.70;76.40;;;;;;5014698;28;20026;-75
2023/03/19 11:23:52;;;;;;;3.17;1.15;;;14.60;76.70;;;;;;5019745;28;20073;-74
2023/03/19 11:26:20;;;;;;;1.30;1.20;;;14.60;77.30;;;;;;5018246;28;20059;-75
2023/03/19 11:28:50;;;;;;;1.98;1.10;;;14.60;77.10;;;;;;5015307;28;20062;-75
2023/03/19 11:31:37;;;;;;;1.30;0.70;;;14.80;77.20;;;;;;5034414;28;20018;-75
2023/03/19 11:34:21;;;;;;;0.98;0.70;;;14.90;76.80;;;;;;5033126;28;20073;-74
2023/03/19 11:37:03;;;;;;;0.70;0.65;;;15.00;76.00;;;;;;5034268;28;20052;-75
2023/03/19 11:40:05;;;;;;;1.83;0.90;;;15.00;75.30;;;;;;5033534;28;20036;-73
2023/03/19 11:42:48;;;;;;;1.10;0.93;;;15.00;74.80;;;;;;5028700;28;20045;-74
2023/03/19 11:45:32;;;;;;;1.38;1.27;;;15.00;75.00;;;;;;5017570;28;20022;-75
2023/03/19 11:48:16;;;;;;;2.47;1.15;;;15.00;74.70;;;;;;5037901;28;20188;-74
2023/03/19 11:50:59;;;;;;;1.50;0.80;;;14.80;74.30;;;;;;5019375;28;20029;-74
2023/03/19 11:53:25;;;;;;;0.82;0.77;;;14.80;75.30;;;;;;5019923;28;20099;-74
2023/03/19 11:56:28;;;;;;;0.82;0.65;;;15.00;75.10;;;;;;5028272;28;20474;-74
2023/03/19 11:59:22;;;;;;;3.35;1.35;;;15.20;73.90;;;;;;5026653;28;20048;-74
2023/03/19 12:02:25;;;;;;;3.00;0.90;;;15.30;72.90;;;;;;5017583;28;20022;-74
2023/03/19 12:05:25;;;;;;;0.75;0.70;;;15.40;73.00;;;;;;5023079;28;20118;-75
2023/03/19 12:08:16;;;;;;;0.77;0.77;;;15.70;72.10;;;;;;5019682;28;20033;-74
2023/03/19 12:11:08;;;;;;;1.13;0.70;;;15.90;71.30;;;;;;5037653;28;20021;-74
2023/03/19 12:13:45;;;;;;;1.27;0.85;;;16.10;70.20;;;;;;5039719;28;20018;-74
2023/03/19 12:16:19;;;;;;;0.93;0.80;;;16.20;68.40;;;;;;5039257;28;20025;-75
2023/03/19 12:19:14;;;;;;;1.42;1.15;;;16.30;68.70;;;;;;5040047;28;20033;-74
2023/03/19 12:21:43;;;;;;;1.17;1.00;;;16.40;67.20;;;;;;5021847;28;20021;-73
2023/03/19 12:24:14;;;;;;;1.10;0.88;;;16.30;67.00;;;;;;5019655;28;20069;-74
2023/03/19 12:26:55;;;;;;;1.00;0.70;;;16.50;67.60;;;;;;5029899;28;20479;-74
2023/03/19 12:29:38;;;;;;;2.90;1.60;;;16.80;66.70;;;;;;5019217;28;20041;-73
2023/03/19 12:32:26;;;;;;;3.92;1.75;;;16.90;64.70;;;;;;5037516;28;20032;-74
2023/03/19 12:35:01;;;;;;;1.25;1.15;;;16.80;63.70;;;;;;5037791;28;20025;-74
2023/03/19 12:37:40;;;;;;;2.22;1.35;;;16.70;64.50;;;;;;5037177;28;20038;-73
2023/03/19 12:40:06;;;;;;;1.55;0.80;;;16.90;65.00;;;;;;5019962;28;20034;-73
2023/03/19 12:42:37;;;;;;;1.75;1.13;;;17.30;64.60;;;;;;5037447;28;20156;-73
2023/03/19 12:45:14;;;;;;;1.02;0.75;;;17.60;62.90;;;;;;5033264;28;20447;-75
2023/03/19 12:47:42;;;;;;;1.48;0.98;;;17.90;62.40;;;;;;5025850;28;20497;-74
2023/03/19 12:50:13;;;;;;;0.80;0.80;;;18.20;61.20;;;;;;5034048;28;20044;-75
2023/03/19 12:52:39;;;;;;;0.77;0.60;;;18.10;60.80;;;;;;5039113;28;20294;-73
2023/03/19 12:55:17;;;;;;;0.50;0.50;;;18.00;60.80;;;;;;5035766;28;20034;-74
2023/03/19 12:58:00;;;;;;;0.50;0.50;;;17.80;60.50;;;;;;5029125;28;20029;-74
2023/03/19 13:00:48;;;;;;;0.85;0.45;;;17.60;60.40;;;;;;5030890;28;20036;-74
2023/03/19 13:03:26;;;;;;;1.60;0.98;;;17.30;60.80;;;;;;5037098;28;20025;-73
2023/03/19 13:06:09;;;;;;;1.13;0.88;;;16.90;60.80;;;;;;5037424;28;20001;-73